sensor_id;sensor_type;location;lat;lon;timestamp;P1;durP1;ratioP1;P2;durP2;ratioP2
64242;SDS011;50573;51.512;5.386;2023-09-19T00:02:32;17.57;;;3.80;;
64242;SDS011;50573;51.512;5.386;2023-09-19T00:12:35;19.33;;;4.32;;
64242;SDS011;50573;51.512;5.386;2023-09-19T00:22:42;18.75;;;4.60;;
64242;SDS011;50573;51.512;5.386;2023-09-19T00:32:46;15.90;;;3.70;;
64242;SDS011;50573;51.512;5.386;2023-09-19T00:42:51;16.30;;;3.80;;
64242;SDS011;50573;51.512;5.386;2023-09-19T00:53:00;17.23;;;4.28;;
64242;SDS011;50573;51.512;5.386;2023-09-19T01:03:11;18.65;;;3.90;;
64242;SDS011;50573;51.512;5.386;2023-09-19T01:13:18;25.90;;;4.47;;
64242;SDS011;50573;51.512;5.386;2023-09-19T01:23:34;23.03;;;4.20;;
64242;SDS011;50573;51.512;5.386;2023-09-19T01:44:09;19.10;;;3.38;;
64242;SDS011;50573;51.512;5.386;2023-09-19T01:54:23;14.90;;;3.45;;
64242;SDS011;50573;51.512;5.386;2023-09-19T02:04:29;15.90;;;3.63;;
64242;SDS011;50573;51.512;5.386;2023-09-19T02:14:33;17.02;;;3.50;;
64242;SDS011;50573;51.512;5.386;2023-09-19T02:24:37;18.67;;;3.55;;
64242;SDS011;50573;51.512;5.386;2023-09-19T02:34:42;14.20;;;3.47;;
64242;SDS011;50573;51.512;5.386;2023-09-19T02:44:46;17.42;;;3.25;;
64242;SDS011;50573;51.512;5.386;2023-09-19T02:54:51;13.50;;;2.92;;
64242;SDS011;50573;51.512;5.386;2023-09-19T03:04:54;19.92;;;3.33;;
64242;SDS011;50573;51.512;5.386;2023-09-19T03:15:00;21.98;;;2.80;;
64242;SDS011;50573;51.512;5.386;2023-09-19T03:25:03;14.50;;;3.58;;
64242;SDS011;50573;51.512;5.386;2023-09-19T03:35:14;9.70;;;2.47;;
64242;SDS011;50573;51.512;5.386;2023-09-19T03:45:17;18.25;;;3.65;;
64242;SDS011;50573;51.512;5.386;2023-09-19T03:55:27;15.10;;;3.38;;
64242;SDS011;50573;51.512;5.386;2023-09-19T04:05:31;16.95;;;3.40;;
64242;SDS011;50573;51.512;5.386;2023-09-19T04:15:36;15.88;;;3.35;;
64242;SDS011;50573;51.512;5.386;2023-09-19T04:25:42;19.27;;;3.75;;
64242;SDS011;50573;51.512;5.386;2023-09-19T04:35:47;17.23;;;3.35;;
64242;SDS011;50573;51.512;5.386;2023-09-19T04:45:52;17.30;;;3.30;;
64242;SDS011;50573;51.512;5.386;2023-09-19T04:55:58;14.25;;;2.90;;
64242;SDS011;50573;51.512;5.386;2023-09-19T05:06:01;13.00;;;3.45;;
64242;SDS011;50573;51.512;5.386;2023-09-19T05:16:08;17.50;;;3.10;;
64242;SDS011;50573;51.512;5.386;2023-09-19T05:26:12;15.00;;;3.00;;
64242;SDS011;50573;51.512;5.386;2023-09-19T05:36:19;16.90;;;3.60;;
64242;SDS011;50573;51.512;5.386;2023-09-19T05:46:22;18.13;;;3.38;;
64242;SDS011;50573;51.512;5.386;2023-09-19T05:56:26;18.73;;;3.50;;
64242;SDS011;50573;51.512;5.386;2023-09-19T06:16:33;19.15;;;3.58;;
64242;SDS011;50573;51.512;5.386;2023-09-19T06:26:36;17.50;;;3.53;;
64242;SDS011;50573;51.512;5.386;2023-09-19T06:36:41;25.20;;;4.35;;
64242;SDS011;50573;51.512;5.386;2023-09-19T06:46:44;16.08;;;3.22;;
64242;SDS011;50573;51.512;5.386;2023-09-19T06:56:54;18.45;;;4.00;;
64242;SDS011;50573;51.512;5.386;2023-09-19T07:17:01;21.20;;;3.80;;
64242;SDS011;50573;51.512;5.386;2023-09-19T07:27:05;14.60;;;3.30;;
64242;SDS011;50573;51.512;5.386;2023-09-19T07:37:10;14.18;;;3.72;;
64242;SDS011;50573;51.512;5.386;2023-09-19T07:47:14;18.10;;;3.80;;
64242;SDS011;50573;51.512;5.386;2023-09-19T07:57:19;15.07;;;3.42;;
64242;SDS011;50573;51.512;5.386;2023-09-19T08:07:22;14.98;;;3.33;;
64242;SDS011;50573;51.512;5.386;2023-09-19T08:17:26;16.05;;;3.88;;
64242;SDS011;50573;51.512;5.386;2023-09-19T08:27:30;15.55;;;4.22;;
64242;SDS011;50573;51.512;5.386;2023-09-19T08:37:34;18.13;;;4.10;;
64242;SDS011;50573;51.512;5.386;2023-09-19T08:47:39;18.00;;;3.42;;
64242;SDS011;50573;51.512;5.386;2023-09-19T08:57:50;17.35;;;3.47;;
64242;SDS011;50573;51.512;5.386;2023-09-19T09:07:55;19.80;;;4.05;;
64242;SDS011;50573;51.512;5.386;2023-09-19T09:18:00;21.58;;;4.40;;
64242;SDS011;50573;51.512;5.386;2023-09-19T09:28:06;17.38;;;3.78;;
64242;SDS011;50573;51.512;5.386;2023-09-19T09:38:10;19.42;;;4.40;;
64242;SDS011;50573;51.512;5.386;2023-09-19T09:48:15;16.10;;;4.07;;
64242;SDS011;50573;51.512;5.386;2023-09-19T09:58:21;13.93;;;3.63;;
64242;SDS011;50573;51.512;5.386;2023-09-19T10:08:27;16.40;;;3.53;;
64242;SDS011;50573;51.512;5.386;2023-09-19T10:18:34;14.70;;;3.13;;
64242;SDS011;50573;51.512;5.386;2023-09-19T10:28:40;14.40;;;3.45;;
64242;SDS011;50573;51.512;5.386;2023-09-19T10:38:47;14.20;;;3.33;;
64242;SDS011;50573;51.512;5.386;2023-09-19T10:48:52;17.30;;;3.25;;
64242;SDS011;50573;51.512;5.386;2023-09-19T10:59:06;16.00;;;3.30;;
64242;SDS011;50573;51.512;5.386;2023-09-19T11:09:12;11.15;;;2.25;;
64242;SDS011;50573;51.512;5.386;2023-09-19T11:19:25;17.52;;;3.10;;
64242;SDS011;50573;51.512;5.386;2023-09-19T11:30:26;14.55;;;2.92;;
64242;SDS011;50573;51.512;5.386;2023-09-19T11:40:33;14.65;;;2.50;;
64242;SDS011;50573;51.512;5.386;2023-09-19T11:50:37;10.63;;;2.08;;
64242;SDS011;50573;51.512;5.386;2023-09-19T12:00:45;9.00;;;1.83;;
64242;SDS011;50573;51.512;5.386;2023-09-19T12:10:59;5.05;;;1.77;;
64242;SDS011;50573;51.512;5.386;2023-09-19T12:21:03;6.73;;;1.70;;
64242;SDS011;50573;51.512;5.386;2023-09-19T12:31:08;8.30;;;2.00;;
64242;SDS011;50573;51.512;5.386;2023-09-19T12:41:14;8.35;;;1.73;;
64242;SDS011;50573;51.512;5.386;2023-09-19T12:51:19;5.30;;;1.73;;
64242;SDS011;50573;51.512;5.386;2023-09-19T13:01:27;7.30;;;1.30;;
64242;SDS011;50573;51.512;5.386;2023-09-19T13:11:35;7.68;;;1.40;;
64242;SDS011;50573;51.512;5.386;2023-09-19T13:21:41;12.05;;;1.70;;
64242;SDS011;50573;51.512;5.386;2023-09-19T13:31:51;5.22;;;1.45;;
64242;SDS011;50573;51.512;5.386;2023-09-19T13:41:57;6.75;;;1.35;;
64242;SDS011;50573;51.512;5.386;2023-09-19T13:52:01;7.05;;;1.67;;
64242;SDS011;50573;51.512;5.386;2023-09-19T14:02:07;10.57;;;1.58;;
64242;SDS011;50573;51.512;5.386;2023-09-19T14:12:11;7.13;;;1.67;;
64242;SDS011;50573;51.512;5.386;2023-09-19T14:22:15;8.47;;;1.80;;
64242;SDS011;50573;51.512;5.386;2023-09-19T14:32:18;6.20;;;1.50;;
64242;SDS011;50573;51.512;5.386;2023-09-19T14:42:23;9.87;;;2.23;;
64242;SDS011;50573;51.512;5.386;2023-09-19T14:52:26;6.22;;;1.75;;
64242;SDS011;50573;51.512;5.386;2023-09-19T15:12:44;6.53;;;1.50;;
64242;SDS011;50573;51.512;5.386;2023-09-19T15:22:49;8.38;;;1.60;;
64242;SDS011;50573;51.512;5.386;2023-09-19T15:32:55;6.90;;;1.83;;
64242;SDS011;50573;51.512;5.386;2023-09-19T15:43:02;9.10;;;1.77;;
64242;SDS011;50573;51.512;5.386;2023-09-19T15:53:09;4.45;;;1.95;;
64242;SDS011;50573;51.512;5.386;2023-09-19T16:03:23;6.35;;;1.80;;
64242;SDS011;50573;51.512;5.386;2023-09-19T16:13:30;6.63;;;1.90;;
64242;SDS011;50573;51.512;5.386;2023-09-19T16:33:55;9.30;;;1.83;;
64242;SDS011;50573;51.512;5.386;2023-09-19T16:44:02;7.47;;;2.28;;
64242;SDS011;50573;51.512;5.386;2023-09-19T16:54:09;10.15;;;2.40;;
64242;SDS011;50573;51.512;5.386;2023-09-19T17:04:20;6.30;;;2.00;;
64242;SDS011;50573;51.512;5.386;2023-09-19T17:14:23;9.20;;;2.45;;
64242;SDS011;50573;51.512;5.386;2023-09-19T17:24:28;10.63;;;2.43;;
64242;SDS011;50573;51.512;5.386;2023-09-19T17:34:31;11.45;;;2.53;;
64242;SDS011;50573;51.512;5.386;2023-09-19T17:44:35;5.87;;;1.90;;
64242;SDS011;50573;51.512;5.386;2023-09-19T17:54:39;6.88;;;2.50;;
64242;SDS011;50573;51.512;5.386;2023-09-19T18:04:43;6.97;;;2.23;;
64242;SDS011;50573;51.512;5.386;2023-09-19T18:14:47;8.73;;;2.67;;
64242;SDS011;50573;51.512;5.386;2023-09-19T18:24:51;5.20;;;2.10;;
64242;SDS011;50573;51.512;5.386;2023-09-19T18:34:55;11.80;;;2.15;;
64242;SDS011;50573;51.512;5.386;2023-09-19T18:45:00;10.13;;;2.50;;
64242;SDS011;50573;51.512;5.386;2023-09-19T18:55:03;7.97;;;1.88;;
64242;SDS011;50573;51.512;5.386;2023-09-19T19:05:08;6.77;;;1.83;;
64242;SDS011;50573;51.512;5.386;2023-09-19T19:15:12;7.57;;;2.33;;
64242;SDS011;50573;51.512;5.386;2023-09-19T19:25:16;5.78;;;2.38;;
64242;SDS011;50573;51.512;5.386;2023-09-19T19:35:20;11.82;;;2.22;;
64242;SDS011;50573;51.512;5.386;2023-09-19T19:45:25;9.43;;;2.13;;
64242;SDS011;50573;51.512;5.386;2023-09-19T19:55:28;6.78;;;2.30;;
64242;SDS011;50573;51.512;5.386;2023-09-19T20:05:37;8.55;;;2.20;;
64242;SDS011;50573;51.512;5.386;2023-09-19T20:15:43;4.28;;;1.85;;
64242;SDS011;50573;51.512;5.386;2023-09-19T20:26:00;7.68;;;2.08;;
64242;SDS011;50573;51.512;5.386;2023-09-19T20:36:06;11.70;;;3.08;;
64242;SDS011;50573;51.512;5.386;2023-09-19T20:46:12;5.63;;;2.25;;
64242;SDS011;50573;51.512;5.386;2023-09-19T20:56:15;5.68;;;2.45;;
64242;SDS011;50573;51.512;5.386;2023-09-19T21:06:22;5.97;;;2.28;;
64242;SDS011;50573;51.512;5.386;2023-09-19T21:16:25;11.45;;;2.60;;
64242;SDS011;50573;51.512;5.386;2023-09-19T21:26:29;7.65;;;2.40;;
64242;SDS011;50573;51.512;5.386;2023-09-19T21:36:32;12.43;;;3.13;;
64242;SDS011;50573;51.512;5.386;2023-09-19T21:46:37;9.07;;;2.50;;
64242;SDS011;50573;51.512;5.386;2023-09-19T21:56:41;11.32;;;2.70;;
64242;SDS011;50573;51.512;5.386;2023-09-19T22:06:45;9.10;;;2.90;;
64242;SDS011;50573;51.512;5.386;2023-09-19T22:16:48;8.13;;;3.22;;
64242;SDS011;50573;51.512;5.386;2023-09-19T22:26:53;5.93;;;2.33;;
64242;SDS011;50573;51.512;5.386;2023-09-19T22:36:56;12.93;;;2.58;;
64242;SDS011;50573;51.512;5.386;2023-09-19T22:47:04;8.02;;;2.47;;
64242;SDS011;50573;51.512;5.386;2023-09-19T22:57:09;10.45;;;3.15;;
64242;SDS011;50573;51.512;5.386;2023-09-19T23:07:14;6.57;;;2.22;;
64242;SDS011;50573;51.512;5.386;2023-09-19T23:17:17;11.30;;;2.85;;
64242;SDS011;50573;51.512;5.386;2023-09-19T23:27:24;10.65;;;2.55;;
64242;SDS011;50573;51.512;5.386;2023-09-19T23:37:34;9.40;;;2.65;;
64242;SDS011;50573;51.512;5.386;2023-09-19T23:47:39;12.65;;;3.35;;
64242;SDS011;50573;51.512;5.386;2023-09-19T23:57:42;9.48;;;2.88;;
